createdAt,value
2023-07-12T00:01:15.445Z,92.60
2023-07-12T00:03:43.611Z,93.10
2023-07-12T00:06:16.463Z,92.50
2023-07-12T00:08:44.815Z,92.20
2023-07-12T00:11:18.123Z,91.80
2023-07-12T00:13:46.129Z,91.90
2023-07-12T00:16:20.925Z,91.80
2023-07-12T00:18:48.891Z,91.80
2023-07-12T00:21:24.047Z,91.10
2023-07-12T00:23:53.579Z,91.20
2023-07-12T00:26:24.447Z,91.30
2023-07-12T00:28:53.034Z,90.90
2023-07-12T00:31:22.550Z,91.00
2023-07-12T00:33:50.379Z,90.80
2023-07-12T00:36:22.749Z,90.90
2023-07-12T00:38:51.069Z,90.80
2023-07-12T00:41:27.544Z,90.60
2023-07-12T00:44:00.314Z,91.10
2023-07-12T00:46:32.930Z,90.50
2023-07-12T00:49:01.694Z,90.60
2023-07-12T00:51:38.880Z,90.60
2023-07-12T00:54:12.757Z,90.30
2023-07-12T00:56:40.995Z,90.30
2023-07-12T00:59:11.800Z,90.10
2023-07-12T01:01:40.121Z,89.80
2023-07-12T01:04:10.050Z,89.50
2023-07-12T01:06:39.301Z,90.00
2023-07-12T01:09:12.558Z,90.50
2023-07-12T01:11:41.093Z,90.10
2023-07-12T01:14:12.000Z,90.40
2023-07-12T01:16:41.248Z,90.90
2023-07-12T01:19:09.498Z,91.00
2023-07-12T01:21:42.626Z,91.50
2023-07-12T01:24:10.895Z,91.70
2023-07-12T01:26:42.081Z,92.20
2023-07-12T01:29:11.890Z,92.30
2023-07-12T01:31:40.604Z,92.90
2023-07-12T01:34:09.894Z,93.30
2023-07-12T01:36:39.413Z,93.80
2023-07-12T01:39:07.937Z,93.80
2023-07-12T01:41:36.412Z,92.80
2023-07-12T01:44:04.733Z,92.60
2023-07-12T01:46:32.855Z,92.40
2023-07-12T01:49:01.227Z,92.60
2023-07-12T01:51:31.018Z,92.40
2023-07-12T01:54:00.085Z,92.70
2023-07-12T01:56:30.743Z,92.70
2023-07-12T01:58:58.506Z,92.90
2023-07-12T02:01:26.312Z,92.50
2023-07-12T02:03:54.207Z,92.40
2023-07-12T02:06:22.052Z,92.10
2023-07-12T02:08:50.271Z,92.50
2023-07-12T02:11:19.258Z,92.10
2023-07-12T02:13:46.988Z,92.30
2023-07-12T02:16:14.736Z,91.80
2023-07-12T02:18:42.464Z,91.90
2023-07-12T02:21:11.469Z,92.40
2023-07-12T02:23:39.492Z,92.10
2023-07-12T02:26:07.183Z,91.90
2023-07-12T02:28:37.760Z,92.00
2023-07-12T02:31:19.393Z,92.20
2023-07-12T02:33:48.467Z,91.80
2023-07-12T02:36:16.660Z,92.00
2023-07-12T02:38:44.463Z,91.90
2023-07-12T02:41:12.539Z,91.80
2023-07-12T02:43:41.793Z,92.10
2023-07-12T02:46:09.531Z,92.10
2023-07-12T02:48:37.420Z,92.30
2023-07-12T02:51:05.193Z,92.40
2023-07-12T02:53:37.297Z,92.30
2023-07-12T02:56:06.852Z,92.50
2023-07-12T02:58:34.568Z,92.60
2023-07-12T03:01:04.097Z,92.60
2023-07-12T03:03:31.960Z,93.10
2023-07-12T03:06:03.973Z,93.10
2023-07-12T03:08:31.694Z,92.70
2023-07-12T03:11:00.275Z,92.90
2023-07-12T03:13:28.995Z,92.40
2023-07-12T03:15:56.680Z,92.20
2023-07-12T03:18:25.910Z,91.90
2023-07-12T03:20:53.732Z,91.90
2023-07-12T03:23:21.418Z,91.90
2023-07-12T03:25:49.268Z,91.80
2023-07-12T03:28:16.979Z,91.70
2023-07-12T03:30:44.701Z,91.60
2023-07-12T03:33:12.494Z,92.00
2023-07-12T03:35:42.796Z,92.20
2023-07-12T03:38:10.495Z,91.80
2023-07-12T03:40:38.202Z,91.70
2023-07-12T03:43:05.946Z,91.50
2023-07-12T03:45:33.713Z,91.90
2023-07-12T03:48:01.445Z,91.70
2023-07-12T03:50:29.151Z,91.60
2023-07-12T03:52:58.212Z,91.50
2023-07-12T03:55:25.910Z,91.50
2023-07-12T03:57:53.660Z,91.40
2023-07-12T04:00:21.381Z,91.20
2023-07-12T04:02:49.251Z,91.40
2023-07-12T04:05:17.962Z,91.60
2023-07-12T04:07:45.687Z,91.30
2023-07-12T04:10:14.728Z,91.10
2023-07-12T04:12:44.325Z,91.20
2023-07-12T04:15:12.397Z,90.80
2023-07-12T04:17:40.231Z,91.00
2023-07-12T04:20:08.851Z,91.00
2023-07-12T04:22:36.600Z,90.80
2023-07-12T04:25:05.348Z,90.60
2023-07-12T04:27:38.361Z,90.60
2023-07-12T04:30:08.671Z,90.40
2023-07-12T04:32:36.741Z,90.20
2023-07-12T04:35:05.720Z,90.00
2023-07-12T04:37:33.889Z,90.20
2023-07-12T04:40:01.701Z,90.00
2023-07-12T04:42:29.408Z,90.40
2023-07-12T04:44:58.545Z,90.40
2023-07-12T04:47:27.188Z,90.20
2023-07-12T04:49:54.925Z,90.20
2023-07-12T04:52:22.761Z,90.10
2023-07-12T04:54:50.621Z,90.00
2023-07-12T04:57:18.546Z,90.00
2023-07-12T04:59:47.848Z,90.10
2023-07-12T05:02:16.889Z,90.20
2023-07-12T05:04:45.338Z,90.60
2023-07-12T05:07:14.961Z,89.90
2023-07-12T05:09:42.701Z,89.70
2023-07-12T05:12:11.000Z,90.00
2023-07-12T05:14:38.769Z,90.10
2023-07-12T05:17:06.974Z,90.20
2023-07-12T05:19:36.230Z,89.30
2023-07-12T05:22:04.024Z,89.20
2023-07-12T05:24:31.871Z,89.00
2023-07-12T05:27:02.068Z,88.50
2023-07-12T05:29:30.011Z,88.30
2023-07-12T05:31:58.908Z,88.20
2023-07-12T05:34:26.605Z,88.20
2023-07-12T05:36:57.818Z,88.70
2023-07-12T05:39:25.628Z,88.50
2023-07-12T05:41:53.447Z,88.90
2023-07-12T05:44:21.591Z,87.90
2023-07-12T05:46:49.373Z,87.70
2023-07-12T05:49:17.157Z,88.30
2023-07-12T05:51:46.450Z,88.80
2023-07-12T05:54:15.545Z,89.00
2023-07-12T05:56:43.457Z,88.90
2023-07-12T05:59:13.670Z,89.30
2023-07-12T06:01:41.885Z,88.80
2023-07-12T06:04:12.662Z,89.10
2023-07-12T06:06:40.792Z,89.40
2023-07-12T06:09:08.769Z,89.60
2023-07-12T06:11:38.756Z,89.30
2023-07-12T06:14:06.566Z,88.60
2023-07-12T06:16:35.611Z,89.40
2023-07-12T06:19:05.521Z,88.60
2023-07-12T06:21:33.332Z,86.80
2023-07-12T06:24:01.081Z,81.40
2023-07-12T06:26:29.269Z,82.40
2023-07-12T06:28:58.315Z,85.60
2023-07-12T06:31:26.085Z,81.50
2023-07-12T06:33:53.827Z,81.30
2023-07-12T06:36:21.648Z,80.20
2023-07-12T06:38:49.411Z,80.70
2023-07-12T06:41:17.082Z,80.60
2023-07-12T06:43:44.782Z,79.40
2023-07-12T06:46:14.501Z,80.10
2023-07-12T06:48:42.354Z,79.80
2023-07-12T06:51:10.886Z,79.60
2023-07-12T06:53:39.076Z,79.20
2023-07-12T06:56:07.982Z,79.80
2023-07-12T06:58:37.789Z,78.60
2023-07-12T07:01:13.369Z,76.20
2023-07-12T07:03:43.533Z,77.50
2023-07-12T07:06:12.694Z,77.20
2023-07-12T07:08:41.074Z,74.20
2023-07-12T07:11:08.998Z,73.70
2023-07-12T07:13:42.787Z,74.60
2023-07-12T07:16:10.687Z,74.30
2023-07-12T07:18:38.601Z,75.40
2023-07-12T07:21:10.242Z,75.70
2023-07-12T07:23:38.092Z,76.30
2023-07-12T07:26:12.905Z,77.10
2023-07-12T07:28:42.257Z,77.00
2023-07-12T07:31:10.427Z,76.20
2023-07-12T07:33:42.009Z,75.80
2023-07-12T07:36:15.113Z,74.30
2023-07-12T07:38:43.009Z,73.90
2023-07-12T07:41:15.828Z,73.00
2023-07-12T07:43:45.230Z,72.50
2023-07-12T07:46:14.269Z,73.40
2023-07-12T07:48:42.263Z,71.10
2023-07-12T07:51:12.148Z,69.70
2023-07-12T07:53:40.035Z,70.80
2023-07-12T07:56:08.751Z,70.80
2023-07-12T07:58:37.005Z,70.50
2023-07-12T08:01:05.069Z,70.30
2023-07-12T08:03:33.284Z,67.40
2023-07-12T08:06:04.001Z,66.90
2023-07-12T08:08:34.902Z,63.30
2023-07-12T08:11:05.812Z,62.80
2023-07-12T08:13:36.212Z,61.50
2023-07-12T08:16:09.086Z,64.20
2023-07-12T08:18:39.208Z,68.60
2023-07-12T08:21:08.517Z,64.90
2023-07-12T08:23:37.794Z,65.70
2023-07-12T08:26:06.830Z,66.10
2023-07-12T08:28:34.580Z,67.20
2023-07-12T08:31:03.533Z,68.20
2023-07-12T08:33:31.330Z,70.40
2023-07-12T08:35:59.035Z,69.90
2023-07-12T08:38:32.205Z,69.80
2023-07-12T08:41:02.558Z,69.60
2023-07-12T08:43:36.417Z,69.70
2023-07-12T08:46:10.213Z,68.70
2023-07-12T08:48:38.837Z,68.80
2023-07-12T08:51:16.095Z,65.50
2023-07-12T08:53:45.154Z,63.70
2023-07-12T08:56:16.781Z,61.60
2023-07-12T08:58:48.294Z,63.70
2023-07-12T09:01:19.057Z,62.70
2023-07-12T09:03:46.959Z,61.70
2023-07-12T09:06:16.486Z,60.90
2023-07-12T09:08:48.303Z,59.90
2023-07-12T09:11:20.136Z,59.10
2023-07-12T09:13:48.317Z,62.60
2023-07-12T09:16:26.520Z,65.70
2023-07-12T09:18:58.041Z,66.30
2023-07-12T09:21:28.019Z,68.20
2023-07-12T09:24:12.018Z,68.20
2023-07-12T09:26:41.134Z,69.80
2023-07-12T09:29:13.593Z,66.10
2023-07-12T09:31:43.171Z,65.70
2023-07-12T09:34:19.204Z,64.30
2023-07-12T09:36:46.991Z,62.20
2023-07-12T09:39:15.989Z,62.70
2023-07-12T09:41:51.806Z,63.10
2023-07-12T09:44:21.013Z,65.50
2023-07-12T09:49:25.720Z,65.50
2023-07-12T09:52:03.179Z,62.20
2023-07-12T09:54:40.143Z,59.70
2023-07-12T09:57:16.321Z,59.00
2023-07-12T10:00:01.214Z,59.10
2023-07-12T10:02:36.919Z,58.10
2023-07-12T10:05:13.041Z,59.70
2023-07-12T10:07:54.000Z,60.50
2023-07-12T10:10:30.944Z,59.50
2023-07-12T10:13:15.235Z,55.70
2023-07-12T10:15:43.592Z,53.60
2023-07-12T10:18:19.097Z,55.00
2023-07-12T10:20:49.831Z,51.90
2023-07-12T10:23:19.025Z,50.40
2023-07-12T10:25:53.442Z,51.40
2023-07-12T10:28:28.058Z,50.20
2023-07-12T10:31:01.834Z,48.40
2023-07-12T10:33:37.146Z,47.10
2023-07-12T10:36:09.653Z,50.20
2023-07-12T10:38:37.367Z,50.40
2023-07-12T10:41:09.516Z,51.10
2023-07-12T10:43:43.165Z,53.30
2023-07-12T10:46:16.849Z,53.40
2023-07-12T10:48:49.689Z,53.30
2023-07-12T10:51:26.610Z,49.90
2023-07-12T10:53:56.307Z,50.70
2023-07-12T10:56:28.349Z,51.90
2023-07-12T10:59:00.403Z,49.50
2023-07-12T11:01:52.013Z,50.80
2023-07-12T11:04:26.796Z,47.40
2023-07-12T11:06:57.831Z,51.40
2023-07-12T11:09:26.869Z,53.60
2023-07-12T11:12:06.277Z,51.50
2023-07-12T11:14:52.567Z,50.50
2023-07-12T11:17:23.118Z,52.80
2023-07-12T11:20:08.048Z,51.40
2023-07-12T11:22:53.165Z,51.90
2023-07-12T11:25:30.119Z,51.50
2023-07-12T11:28:01.164Z,50.00
2023-07-12T11:30:44.057Z,50.10
2023-07-12T11:33:29.598Z,46.20
2023-07-12T11:36:03.000Z,47.70
2023-07-12T11:38:37.324Z,49.90
2023-07-12T11:41:09.423Z,48.20
2023-07-12T11:43:40.034Z,50.80
2023-07-12T11:46:16.750Z,46.90
2023-07-12T11:48:50.848Z,47.00
2023-07-12T11:51:28.276Z,48.80
2023-07-12T11:53:58.521Z,52.20
2023-07-12T11:56:28.068Z,52.30
2023-07-12T11:58:56.604Z,50.90
2023-07-12T12:01:26.076Z,50.40
2023-07-12T12:03:54.093Z,51.50
2023-07-12T12:06:22.591Z,48.30
2023-07-12T12:08:56.122Z,49.20
2023-07-12T12:11:28.264Z,47.60
2023-07-12T12:13:56.146Z,48.10
2023-07-12T12:16:29.587Z,49.80
2023-07-12T12:19:00.746Z,49.00
2023-07-12T12:21:30.509Z,50.60
2023-07-12T12:24:07.193Z,48.60
2023-07-12T12:26:40.859Z,47.60
2023-07-12T12:29:17.742Z,49.80
2023-07-12T12:31:57.511Z,50.70
2023-07-12T12:34:29.081Z,50.00
2023-07-12T12:36:58.731Z,49.10
2023-07-12T12:39:26.626Z,49.90
2023-07-12T12:41:56.097Z,52.10
2023-07-12T12:44:29.686Z,53.40
2023-07-12T12:47:05.448Z,55.80
2023-07-12T12:55:00.333Z,52.10
2023-07-12T13:05:28.663Z,52.80
2023-07-12T13:11:11.593Z,55.40
2023-07-12T13:20:59.572Z,55.90
2023-07-12T13:23:37.914Z,55.00
2023-07-12T13:26:12.428Z,56.10
2023-07-12T13:28:40.229Z,57.50
2023-07-12T13:31:08.307Z,57.10
2023-07-12T13:33:37.610Z,57.10
2023-07-12T13:36:09.530Z,56.10
2023-07-12T13:45:13.924Z,54.70
2023-07-12T13:46:31.853Z,57.60
2023-07-12T13:49:01.299Z,55.70
2023-07-12T13:51:29.025Z,57.60
2023-07-12T13:53:56.746Z,55.70
2023-07-12T14:09:19.692Z,59.20
2023-07-12T14:11:47.959Z,57.50
2023-07-12T14:14:15.767Z,56.20
2023-07-12T14:16:43.601Z,57.20
2023-07-12T14:19:12.752Z,57.00
2023-07-12T14:21:40.546Z,57.40
2023-07-12T14:24:10.968Z,55.90
2023-07-12T14:26:41.249Z,56.70
2023-07-12T14:31:58.564Z,54.90
2023-07-12T14:34:27.628Z,57.20
2023-07-12T14:36:55.329Z,55.20
2023-07-12T14:39:23.097Z,57.30
2023-07-12T14:41:51.189Z,55.10
2023-07-12T14:44:20.464Z,54.50
2023-07-12T14:46:51.251Z,54.20
2023-07-12T14:49:22.700Z,55.40
2023-07-12T14:52:08.827Z,54.80
2023-07-12T14:54:52.688Z,54.80
2023-07-12T14:57:59.757Z,55.90
2023-07-12T15:00:19.915Z,55.40
2023-07-12T15:02:51.675Z,55.40
2023-07-12T15:05:19.509Z,57.10
2023-07-12T15:07:49.153Z,55.50
2023-07-12T15:10:18.623Z,56.90
2023-07-12T15:12:49.493Z,55.90
2023-07-12T15:15:20.320Z,55.70
2023-07-12T15:17:52.298Z,56.10
2023-07-12T15:20:24.267Z,56.80
2023-07-12T15:22:54.320Z,57.10
2023-07-12T15:25:26.781Z,57.00
2023-07-12T15:27:58.417Z,55.80
2023-07-12T15:30:29.126Z,57.60
2023-07-12T15:32:59.001Z,56.80
2023-07-12T15:35:29.760Z,56.30
2023-07-12T15:38:00.437Z,56.50
2023-07-12T15:40:49.632Z,57.30
2023-07-12T15:43:22.166Z,57.60
2023-07-12T15:45:50.010Z,56.90
2023-07-12T15:48:19.562Z,57.40
2023-07-12T15:50:50.669Z,57.00
2023-07-12T15:53:21.990Z,57.70
2023-07-12T15:55:51.326Z,58.20
2023-07-12T15:58:21.606Z,58.90
2023-07-12T16:00:56.566Z,59.00
2023-07-12T16:03:28.250Z,60.00
2023-07-12T16:05:58.978Z,60.00
2023-07-12T16:08:29.147Z,59.40
2023-07-12T16:11:01.646Z,60.30
2023-07-12T16:13:33.902Z,60.30
2023-07-12T16:16:02.716Z,59.70
2023-07-12T16:18:31.363Z,60.30
2023-07-12T16:21:01.398Z,60.80
2023-07-12T16:23:35.341Z,61.40
2023-07-12T16:26:09.236Z,60.80
2023-07-12T16:28:38.700Z,61.30
2023-07-12T16:31:34.257Z,60.30
2023-07-12T16:34:02.711Z,59.90
2023-07-12T16:36:32.518Z,59.70
2023-07-12T16:39:01.716Z,59.60
2023-07-12T16:41:31.337Z,60.10
2023-07-12T16:44:00.880Z,59.80
2023-07-12T16:46:30.401Z,60.70
2023-07-12T16:48:59.273Z,60.30
2023-07-12T16:51:29.784Z,60.50
2023-07-12T16:53:58.961Z,60.40
2023-07-12T16:56:29.505Z,60.40
2023-07-12T16:58:57.500Z,60.00
2023-07-12T17:01:28.560Z,60.30
2023-07-12T17:03:58.108Z,61.90
2023-07-12T17:06:32.424Z,60.60
2023-07-12T17:09:00.250Z,61.30
2023-07-12T17:11:32.806Z,61.70
2023-07-12T17:14:02.671Z,60.90
2023-07-12T17:16:33.018Z,59.10
2023-07-12T17:19:04.580Z,60.60
2023-07-12T17:21:34.625Z,60.50
2023-07-12T17:24:02.891Z,61.00
2023-07-12T17:26:31.935Z,62.50
2023-07-12T17:28:59.884Z,61.30
2023-07-12T17:31:32.739Z,60.70
2023-07-12T17:34:01.862Z,61.70
2023-07-12T17:36:29.887Z,61.50
2023-07-12T17:38:58.905Z,61.40
2023-07-12T17:41:28.924Z,61.00
2023-07-12T17:43:59.617Z,60.10
2023-07-12T17:46:27.457Z,60.30
2023-07-12T17:48:57.193Z,61.20
2023-07-12T17:51:27.570Z,61.00
2023-07-12T17:53:56.300Z,61.00
2023-07-12T17:56:26.014Z,60.70
2023-07-12T17:58:55.202Z,60.60
2023-07-12T18:01:26.021Z,60.80
2023-07-12T18:03:55.072Z,60.90
2023-07-12T18:06:24.652Z,61.50
2023-07-12T18:08:53.450Z,61.70
2023-07-12T18:11:26.713Z,62.90
2023-07-12T18:13:55.379Z,61.40
2023-07-12T18:16:25.186Z,61.30
2023-07-12T18:18:53.429Z,62.40
2023-07-12T18:21:24.610Z,61.90
2023-07-12T18:23:52.884Z,61.30
2023-07-12T18:26:21.789Z,62.50
2023-07-12T18:28:50.497Z,62.60
2023-07-12T18:31:21.396Z,63.20
2023-07-12T18:33:50.572Z,63.10
2023-07-12T18:36:20.267Z,63.50
2023-07-12T18:38:50.974Z,64.20
2023-07-12T18:41:21.808Z,65.00
2023-07-12T18:43:50.505Z,65.50
2023-07-12T18:46:19.091Z,66.30
2023-07-12T18:48:49.874Z,66.40
2023-07-12T18:51:22.054Z,64.50
2023-07-12T18:53:50.996Z,66.30
2023-07-12T18:56:20.626Z,66.80
2023-07-12T18:58:49.064Z,68.10
2023-07-12T19:01:19.140Z,69.00
2023-07-12T19:03:47.457Z,71.10
2023-07-12T19:06:19.132Z,72.00
2023-07-12T19:08:47.082Z,72.80
2023-07-12T19:11:24.635Z,73.40
2023-07-12T19:13:53.703Z,74.80
2023-07-12T19:16:22.576Z,74.60
2023-07-12T19:18:50.996Z,74.70
2023-07-12T19:21:25.392Z,75.50
2023-07-12T19:23:54.299Z,75.50
2023-07-12T19:26:24.004Z,76.50
2023-07-12T19:28:53.501Z,77.40
2023-07-12T19:31:24.073Z,77.70
2023-07-12T19:33:54.422Z,78.10
2023-07-12T19:36:24.353Z,78.80
2023-07-12T19:38:52.387Z,78.80
2023-07-12T19:41:22.313Z,78.60
2023-07-12T19:43:51.259Z,78.90
2023-07-12T19:46:20.822Z,79.00
2023-07-12T19:48:48.738Z,79.80
2023-07-12T19:51:20.381Z,80.40
2023-07-12T19:53:53.160Z,80.60
2023-07-12T19:56:21.252Z,80.50
2023-07-12T19:58:56.969Z,80.60
2023-07-12T20:01:26.070Z,81.00
2023-07-12T20:03:55.766Z,81.40
2023-07-12T20:06:23.756Z,81.60
2023-07-12T20:08:54.832Z,81.30
2023-07-12T20:11:23.263Z,81.60
2023-07-12T20:13:52.308Z,81.50
2023-07-12T20:16:23.863Z,82.30
2023-07-12T20:18:52.990Z,82.80
2023-07-12T20:21:21.187Z,83.20
2023-07-12T20:23:51.729Z,83.10
2023-07-12T20:26:21.120Z,83.40
2023-07-12T20:28:49.502Z,83.50
2023-07-12T20:31:19.240Z,83.40
2023-07-12T20:33:47.538Z,83.50
2023-07-12T20:36:17.138Z,83.50
2023-07-12T20:38:49.053Z,83.60
2023-07-12T20:41:19.248Z,83.50
2023-07-12T20:43:50.398Z,83.90
2023-07-12T20:46:18.153Z,84.20
2023-07-12T20:48:45.893Z,84.10
2023-07-12T20:51:17.261Z,84.30
2023-07-12T20:53:49.406Z,84.20
2023-07-12T20:56:20.684Z,84.40
2023-07-12T20:58:51.985Z,84.30
2023-07-12T21:01:22.673Z,84.30
2023-07-12T21:03:54.066Z,84.20
2023-07-12T21:06:24.924Z,84.50
2023-07-12T21:08:56.559Z,84.10
2023-07-12T21:11:24.421Z,84.40
2023-07-12T21:13:53.943Z,84.30
2023-07-12T21:16:23.480Z,84.50
2023-07-12T21:18:52.897Z,84.60
2023-07-12T21:21:21.266Z,84.90
2023-07-12T21:23:50.614Z,85.30
2023-07-12T21:26:18.458Z,85.20
2023-07-12T21:28:46.186Z,85.20
2023-07-12T21:31:19.381Z,85.10
2023-07-12T21:33:47.669Z,85.20
2023-07-12T21:36:15.829Z,85.40
2023-07-12T21:38:43.931Z,85.60
2023-07-12T21:41:14.486Z,85.80
2023-07-12T21:43:42.689Z,85.90
2023-07-12T21:46:12.994Z,85.80
2023-07-12T21:48:42.354Z,86.30
2023-07-12T21:51:10.149Z,86.40
2023-07-12T21:53:37.891Z,86.20
2023-07-12T21:56:06.108Z,86.30
2023-07-12T21:58:33.911Z,86.40
2023-07-12T22:01:06.808Z,86.60
2023-07-12T22:03:34.724Z,86.40
2023-07-12T22:06:04.236Z,86.30
2023-07-12T22:08:39.466Z,86.30
2023-07-12T22:11:08.526Z,86.60
2023-07-12T22:13:36.244Z,86.60
2023-07-12T22:16:04.126Z,86.40
2023-07-12T22:18:45.761Z,86.50
2023-07-12T22:21:19.596Z,86.40
2023-07-12T22:23:47.370Z,86.10
2023-07-12T22:26:17.739Z,85.70
2023-07-12T22:28:45.528Z,86.10
2023-07-12T22:31:13.685Z,86.00
2023-07-12T22:33:41.951Z,86.30
2023-07-12T22:36:10.239Z,86.70
2023-07-12T22:38:39.925Z,86.40
2023-07-12T22:41:08.177Z,86.40
2023-07-12T22:43:35.901Z,86.60
2023-07-12T22:46:05.218Z,86.40
2023-07-12T22:48:34.423Z,86.20
2023-07-12T22:51:02.410Z,86.10
2023-07-12T22:53:30.483Z,86.40
2023-07-12T22:56:02.045Z,86.10
2023-07-12T22:58:30.949Z,86.40
2023-07-12T23:01:00.613Z,86.70
2023-07-12T23:03:28.884Z,87.10
2023-07-12T23:05:58.599Z,87.10
2023-07-12T23:08:26.764Z,87.00
2023-07-12T23:10:55.038Z,87.00
2023-07-12T23:13:26.827Z,86.80
2023-07-12T23:15:55.436Z,86.50
2023-07-12T23:18:25.324Z,86.90
2023-07-12T23:20:54.914Z,87.20
2023-07-12T23:23:23.641Z,87.50
2023-07-12T23:25:51.872Z,87.20
2023-07-12T23:28:19.646Z,86.50
2023-07-12T23:30:48.690Z,86.70
2023-07-12T23:33:16.443Z,86.90
2023-07-12T23:35:44.279Z,86.40
2023-07-12T23:38:12.068Z,85.70
2023-07-12T23:40:39.723Z,86.00
2023-07-12T23:43:08.178Z,86.00
2023-07-12T23:45:36.055Z,85.90
2023-07-12T23:48:06.522Z,85.90
2023-07-12T23:50:34.627Z,86.00
2023-07-12T23:53:02.380Z,86.20
2023-07-12T23:55:31.202Z,85.30
2023-07-12T23:57:58.963Z,85.80
